SBBRYZYX KWBCYMYX SOZZMAMX SYZZMAMX TBPBYMYX TNCCYMYX

TNCAYMYX TFFFYMYX TFFRYMYX TTPPYMYX EGZZMNAM

011000 SMJPYMYX

FTSM20 SMJP 011000

TAF SMJP 011000Z 0112/0212 12008KT 9999 SCT012 TX35/0118Z TN22/0210Z TEMPO 0117/0121 VRB10G23KT 4000 TSRA SCT015CB SCT030 BECMG 0207/0209 2000 BR BECMG 0211/0212 9999 NSW=

 

 

TAF SMZO 011000Z 0112/0212 13006KT 9999 SCT012 TX35/0118Z TN24/0210Z TEMPO 0117/0121 VRB10G20KT 4000 SHRA FEW015CB SCT030=

 

 

 

 

D.S.